Terminal Aerodrome Forecast
Issued by NWS Wilmington, OH

Current Version | Previous Version | Text Only | Print | Product List | Glossary Off
Versions: 1 2 3 4 5 6 7 8 9 10 11 12 13 14 15 16 17 18 19 20 21 22 23

000
FTUS41 KILN 191704 AAC
TAFILN
TAF AMD
KILN 191704Z 1917/2012 21007KT P6SM VCSH OVC060
      TEMPO 1917/1920 3SM -SHRA OVC025
     FM200200 16004KT P6SM BKN090
     FM200700 17004KT 5SM BR BKN100=

USA.gov is the U.S. government's official web portal to all federal, state and local government web resources and services.